Time;durP1;ratioP1;P1;durP2;ratioP2;P2;SDS_P1;SDS_P2;PMS_P1;PMS_P2;Temp;Humidity;BMP_temperature;BMP_pressure;BME280_temperature;BME280_humidity;BME280_pressure;Samples;Min_cycle;Max_cycle;Signal;HPM_P1;HPM_P2
2022/03/23 00:00:12;;;;;;;5.05;3.75;;;;;;;;;;6335869;22;19999;-80
2022/03/23 00:02:38;;;;;;;5.53;3.88;;;;;;;;;;6334614;22;20508;-78
2022/03/23 00:05:04;;;;;;;6.53;3.95;;;;;;;;;;6334890;22;20021;-77
2022/03/23 00:07:30;;;;;;;5.35;3.80;;;;;;;;;;6335011;22;19999;-82
2022/03/23 00:09:56;;;;;;;4.68;3.88;;;;;;;;;;6334648;22;20347;-79
2022/03/23 00:12:22;;;;;;;4.72;3.72;;;;;;;;;;6334653;22;19999;-83
2022/03/23 00:14:48;;;;;;;5.18;3.70;;;;;;;;;;6334644;22;20014;-79
2022/03/23 00:17:14;;;;;;;4.43;3.90;;;;;;;;;;6335560;22;20331;-76
2022/03/23 00:19:40;;;;;;;4.68;3.55;;;;;;;;;;6335699;22;19998;-80
2022/03/23 00:22:06;;;;;;;4.40;3.45;;;;;;;;;;6334754;22;20474;-81
2022/03/23 00:24:32;;;;;;;4.85;3.78;;;;;;;;;;6334551;22;20006;-80
2022/03/23 00:26:59;;;;;;;5.90;3.80;;;;;;;;;;6307071;22;20010;-80
2022/03/23 00:29:25;;;;;;;4.20;3.80;;;;;;;;;;6334410;22;20006;-79
2022/03/23 00:31:51;;;;;;;5.25;3.65;;;;;;;;;;6334475;22;20006;-80
2022/03/23 00:34:17;;;;;;;5.18;4.05;;;;;;;;;;6334856;22;19998;-81
2022/03/23 00:36:43;;;;;;;4.28;3.88;;;;;;;;;;6335692;22;19999;-82
2022/03/23 00:39:09;;;;;;;4.35;3.58;;;;;;;;;;6334540;22;20011;-81
2022/03/23 00:41:35;;;;;;;4.72;3.90;;;;;;;;;;6334634;22;20467;-81
2022/03/23 00:44:01;;;;;;;4.75;3.88;;;;;;;;;;6333768;22;20003;-82
2022/03/23 00:46:27;;;;;;;4.75;3.70;;;;;;;;;;6334518;22;20078;-81
2022/03/23 00:48:54;;;;;;;5.40;3.50;;;;;;;;;;6334533;22;19995;-82
2022/03/23 00:51:20;;;;;;;6.43;4.20;;;;;;;;;;6334600;22;20007;-82
2022/03/23 00:53:47;;;;;;;3.78;3.47;;;;;;;;;;6334820;22;20082;-77
2022/03/23 00:56:13;;;;;;;5.63;3.90;;;;;;;;;;6335573;22;20041;-81
2022/03/23 00:58:39;;;;;;;5.00;3.85;;;;;;;;;;6334361;22;20431;-83
2022/03/23 01:01:05;;;;;;;4.78;4.05;;;;;;;;;;6334499;22;20489;-82
2022/03/23 01:03:31;;;;;;;4.68;3.83;;;;;;;;;;6334158;22;19999;-82
2022/03/23 01:05:57;;;;;;;3.88;3.47;;;;;;;;;;6334139;22;20014;-80
2022/03/23 01:08:23;;;;;;;4.88;3.90;;;;;;;;;;6334238;22;20005;-83
2022/03/23 01:10:49;;;;;;;5.05;3.85;;;;;;;;;;6334065;22;20003;-83
2022/03/23 01:13:15;;;;;;;5.82;4.10;;;;;;;;;;6335229;22;20005;-82
2022/03/23 01:15:42;;;;;;;4.72;3.90;;;;;;;;;;6334763;22;20378;-78
2022/03/23 01:18:09;;;;;;;4.25;3.72;;;;;;;;;;6334305;22;20010;-76
2022/03/23 01:20:36;;;;;;;6.03;3.90;;;;;;;;;;6306691;22;19998;-83
2022/03/23 01:23:02;;;;;;;4.55;3.90;;;;;;;;;;6334014;22;20002;-81
2022/03/23 01:25:28;;;;;;;4.93;4.00;;;;;;;;;;6333947;22;20164;-82
2022/03/23 01:27:56;;;;;;;4.72;3.88;;;;;;;;;;6334127;22;20030;-78
2022/03/23 01:30:23;;;;;;;5.03;3.80;;;;;;;;;;6334200;22;20060;-81
2022/03/23 01:32:49;;;;;;;4.88;3.95;;;;;;;;;;6334024;22;20006;-81
2022/03/23 01:35:15;;;;;;;5.38;4.15;;;;;;;;;;6335087;22;20003;-79
2022/03/23 01:37:42;;;;;;;4.97;4.00;;;;;;;;;;6333943;22;20035;-75
2022/03/23 01:40:09;;;;;;;4.32;3.90;;;;;;;;;;6333949;22;20222;-82
2022/03/23 01:42:35;;;;;;;6.95;3.92;;;;;;;;;;6333742;22;19995;-82
2022/03/23 01:45:01;;;;;;;4.80;3.78;;;;;;;;;;6334121;22;20011;-81
2022/03/23 01:47:27;;;;;;;4.50;3.78;;;;;;;;;;6333969;22;20335;-81
2022/03/23 01:49:54;;;;;;;5.68;4.00;;;;;;;;;;6333880;22;20060;-83
2022/03/23 01:52:22;;;;;;;4.82;3.70;;;;;;;;;;6333977;22;19998;-83
2022/03/23 01:54:48;;;;;;;5.43;4.03;;;;;;;;;;6334757;22;20025;-79
2022/03/23 01:57:15;;;;;;;6.35;4.22;;;;;;;;;;6333874;22;20045;-80
2022/03/23 01:59:41;;;;;;;4.60;4.13;;;;;;;;;;6334052;22;20044;-82
2022/03/23 02:02:10;;;;;;;4.72;3.67;;;;;;;;;;6306105;22;20010;-82
2022/03/23 02:04:37;;;;;;;4.75;3.90;;;;;;;;;;6333730;22;20007;-80
2022/03/23 02:07:03;;;;;;;5.78;4.15;;;;;;;;;;6333614;22;20425;-82
2022/03/23 02:09:30;;;;;;;4.65;3.60;;;;;;;;;;6333552;22;20002;-81
2022/03/23 02:11:56;;;;;;;4.43;3.83;;;;;;;;;;6333756;22;20343;-81
2022/03/23 02:14:22;;;;;;;5.38;3.67;;;;;;;;;;6305799;22;20076;-81
2022/03/23 02:16:50;;;;;;;7.05;3.80;;;;;;;;;;6334397;22;20077;-81
2022/03/23 02:19:16;;;;;;;5.72;4.03;;;;;;;;;;6334937;22;20003;-80
2022/03/23 02:21:43;;;;;;;4.50;4.00;;;;;;;;;;6305962;22;20010;-79
2022/03/23 02:24:09;;;;;;;6.22;3.85;;;;;;;;;;6333429;22;20324;-80
2022/03/23 02:26:37;;;;;;;4.65;3.95;;;;;;;;;;6333597;22;20009;-80
2022/03/23 02:29:04;;;;;;;6.55;4.00;;;;;;;;;;6305802;22;20003;-77
2022/03/23 02:31:31;;;;;;;4.70;3.97;;;;;;;;;;6333464;22;20030;-80
2022/03/23 02:33:57;;;;;;;4.82;3.97;;;;;;;;;;6333505;22;20052;-80
2022/03/23 02:36:23;;;;;;;4.53;3.88;;;;;;;;;;6305824;22;20003;-79
2022/03/23 02:38:50;;;;;;;6.70;3.60;;;;;;;;;;6334418;22;20395;-78
2022/03/23 02:41:16;;;;;;;4.32;3.72;;;;;;;;;;6333829;22;20331;-81
2022/03/23 02:43:42;;;;;;;5.93;3.95;;;;;;;;;;6333315;22;20446;-78
2022/03/23 02:46:12;;;;;;;5.15;3.92;;;;;;;;;;6333338;22;20381;-79
2022/03/23 02:48:38;;;;;;;7.82;4.00;;;;;;;;;;6333200;22;19999;-79
2022/03/23 02:51:04;;;;;;;11.35;4.35;;;;;;;;;;6333241;22;20041;-78
2022/03/23 03:02:19;;;;;;;8.13;4.10;;;;;;;;;;6268628;22;20044;-80
2022/03/23 03:04:45;;;;;;;10.10;4.20;;;;;;;;;;6333216;22;20011;-80
2022/03/23 03:07:11;;;;;;;9.80;4.20;;;;;;;;;;6332995;22;19999;-79
2022/03/23 03:09:37;;;;;;;8.38;4.40;;;;;;;;;;6333272;22;20009;-81
2022/03/23 03:12:04;;;;;;;10.85;4.32;;;;;;;;;;6333088;22;20069;-82
2022/03/23 03:14:31;;;;;;;13.85;4.45;;;;;;;;;;6333393;22;20010;-82
2022/03/23 03:16:57;;;;;;;14.05;4.70;;;;;;;;;;6333272;22;20462;-82
2022/03/23 03:19:23;;;;;;;9.80;4.35;;;;;;;;;;6334139;22;20002;-82
2022/03/23 03:21:49;;;;;;;9.32;4.07;;;;;;;;;;6334306;22;20017;-79
2022/03/23 03:24:15;;;;;;;9.95;3.97;;;;;;;;;;6305182;22;20007;-79
2022/03/23 03:26:41;;;;;;;11.55;4.60;;;;;;;;;;6333123;22;20465;-83
2022/03/23 03:29:07;;;;;;;6.25;4.47;;;;;;;;;;6333357;22;19995;-82
2022/03/23 03:31:33;;;;;;;7.30;3.80;;;;;;;;;;6333342;22;19999;-76
2022/03/23 03:34:00;;;;;;;9.07;4.00;;;;;;;;;;6333240;22;20007;-83
2022/03/23 03:36:26;;;;;;;7.05;4.03;;;;;;;;;;6333207;22;20067;-79
2022/03/23 03:38:52;;;;;;;6.60;4.00;;;;;;;;;;6334185;22;20022;-81
2022/03/23 03:41:18;;;;;;;7.32;4.50;;;;;;;;;;6333218;22;19999;-78
2022/03/23 03:43:44;;;;;;;7.75;4.28;;;;;;;;;;6333467;22;20022;-80
2022/03/23 03:46:11;;;;;;;6.28;3.78;;;;;;;;;;6333239;22;20439;-79
2022/03/23 03:48:37;;;;;;;10.95;4.00;;;;;;;;;;6333074;22;20070;-82
2022/03/23 03:51:06;;;;;;;14.68;4.30;;;;;;;;;;6333037;22;20096;-83
2022/03/23 03:53:32;;;;;;;9.90;4.35;;;;;;;;;;6333222;22;20026;-84
2022/03/23 03:55:58;;;;;;;6.63;4.15;;;;;;;;;;6332787;22;19999;-83
2022/03/23 03:58:24;;;;;;;5.80;3.92;;;;;;;;;;6334227;22;19995;-82
2022/03/23 04:00:50;;;;;;;7.63;3.88;;;;;;;;;;6333095;22;20007;-82
2022/03/23 04:03:16;;;;;;;9.75;4.20;;;;;;;;;;6333263;22;20586;-81
2022/03/23 04:05:42;;;;;;;7.22;3.95;;;;;;;;;;6333029;22;20017;-85
2022/03/23 04:08:09;;;;;;;17.48;4.65;;;;;;;;;;6332883;22;20006;-84
2022/03/23 04:10:35;;;;;;;8.80;4.25;;;;;;;;;;6333160;22;20012;-83
2022/03/23 04:13:02;;;;;;;9.43;4.35;;;;;;;;;;6333274;22;20002;-81
2022/03/23 04:15:28;;;;;;;8.20;4.28;;;;;;;;;;6332956;22;20495;-82
2022/03/23 04:17:54;;;;;;;7.45;4.45;;;;;;;;;;6334140;22;20431;-78
2022/03/23 04:20:21;;;;;;;13.38;4.57;;;;;;;;;;6334689;22;20445;-81
2022/03/23 04:22:47;;;;;;;6.85;3.75;;;;;;;;;;6334612;22;20356;-81
2022/03/23 04:25:14;;;;;;;5.65;3.90;;;;;;;;;;6334631;22;20007;-82
2022/03/23 04:27:46;;;;;;;12.13;3.97;;;;;;;;;;6334700;22;19999;-78
2022/03/23 04:30:13;;;;;;;6.57;3.95;;;;;;;;;;6334705;22;20045;-79
2022/03/23 04:32:39;;;;;;;10.30;4.03;;;;;;;;;;6334487;22;20024;-81
2022/03/23 04:35:05;;;;;;;7.90;4.25;;;;;;;;;;6306890;22;20003;-80
2022/03/23 04:37:31;;;;;;;7.68;4.15;;;;;;;;;;6333405;22;20077;-78
2022/03/23 04:39:59;;;;;;;12.88;4.57;;;;;;;;;;6334917;22;20006;-80
2022/03/23 04:42:25;;;;;;;7.78;4.03;;;;;;;;;;6334714;22;20010;-82
2022/03/23 04:44:51;;;;;;;10.05;4.07;;;;;;;;;;6333775;22;20017;-78
2022/03/23 04:47:17;;;;;;;25.75;4.65;;;;;;;;;;6334182;22;20060;-79
2022/03/23 04:49:43;;;;;;;9.15;4.10;;;;;;;;;;6334010;22;20009;-80
2022/03/23 04:52:11;;;;;;;15.25;4.18;;;;;;;;;;6306568;22;20354;-79
2022/03/23 04:54:37;;;;;;;10.32;4.25;;;;;;;;;;6334920;22;20002;-79
2022/03/23 04:57:03;;;;;;;11.50;4.15;;;;;;;;;;6334831;22;19999;-80
2022/03/23 04:59:30;;;;;;;9.80;4.00;;;;;;;;;;6334802;22;20057;-78
2022/03/23 05:01:56;;;;;;;7.68;4.03;;;;;;;;;;6335257;22;20003;-81
2022/03/23 05:04:21;;;;;;;10.25;3.92;;;;;;;;;;6333735;22;20006;-82
2022/03/23 05:06:47;;;;;;;9.85;4.25;;;;;;;;;;6334630;22;19998;-81
2022/03/23 05:09:14;;;;;;;14.70;4.57;;;;;;;;;;6334482;22;20022;-81
2022/03/23 05:11:39;;;;;;;7.55;3.90;;;;;;;;;;6334397;22;20052;-80
2022/03/23 05:14:06;;;;;;;7.60;4.18;;;;;;;;;;6306759;22;20002;-85
2022/03/23 05:16:32;;;;;;;8.40;4.05;;;;;;;;;;6333507;22;20063;-81
2022/03/23 05:18:58;;;;;;;7.28;4.35;;;;;;;;;;6335180;22;20381;-79
2022/03/23 05:21:24;;;;;;;10.32;4.25;;;;;;;;;;6334315;22;19994;-80
2022/03/23 05:23:50;;;;;;;7.85;4.20;;;;;;;;;;6333764;22;20322;-80
2022/03/23 05:26:17;;;;;;;6.95;4.03;;;;;;;;;;6334071;22;20002;-77
2022/03/23 05:28:43;;;;;;;7.90;4.00;;;;;;;;;;6334212;22;20006;-77
2022/03/23 05:31:10;;;;;;;6.88;3.97;;;;;;;;;;6333849;22;20007;-79
2022/03/23 05:33:36;;;;;;;9.50;4.45;;;;;;;;;;6334118;22;19995;-77
2022/03/23 05:36:02;;;;;;;5.18;3.63;;;;;;;;;;6334213;22;19999;-78
2022/03/23 05:38:28;;;;;;;7.00;3.83;;;;;;;;;;6335499;22;20022;-80
2022/03/23 05:40:54;;;;;;;4.88;4.03;;;;;;;;;;6334080;22;20422;-80
2022/03/23 05:43:20;;;;;;;5.45;4.18;;;;;;;;;;6334033;22;20045;-81
2022/03/23 05:45:47;;;;;;;8.23;3.67;;;;;;;;;;6333761;22;20011;-77
2022/03/23 05:48:13;;;;;;;7.20;3.80;;;;;;;;;;6334013;22;20370;-84
2022/03/23 05:50:39;;;;;;;5.25;4.15;;;;;;;;;;6334413;22;20003;-85
2022/03/23 05:53:07;;;;;;;6.28;3.53;;;;;;;;;;6334241;22;19995;-83
2022/03/23 05:55:33;;;;;;;8.90;4.07;;;;;;;;;;6306465;22;20003;-81
2022/03/23 05:57:59;;;;;;;6.25;4.00;;;;;;;;;;6335164;22;19999;-77
2022/03/23 06:00:25;;;;;;;5.28;3.65;;;;;;;;;;6333955;22;19999;-84
2022/03/23 06:02:51;;;;;;;5.47;4.00;;;;;;;;;;6333908;22;19995;-84
2022/03/23 06:05:17;;;;;;;4.57;3.83;;;;;;;;;;6306434;22;20015;-85
2022/03/23 06:07:44;;;;;;;5.75;4.05;;;;;;;;;;6334275;22;19998;-86
2022/03/23 06:10:10;;;;;;;5.63;3.65;;;;;;;;;;6334115;22;20002;-85
2022/03/23 06:12:36;;;;;;;6.00;4.13;;;;;;;;;;6334133;22;20018;-84
2022/03/23 06:15:03;;;;;;;9.48;3.85;;;;;;;;;;6334806;22;20007;-83
2022/03/23 06:17:29;;;;;;;7.63;3.75;;;;;;;;;;6334899;22;20006;-81
2022/03/23 06:19:55;;;;;;;9.05;4.00;;;;;;;;;;6333936;22;20003;-83
2022/03/23 06:22:21;;;;;;;6.43;3.92;;;;;;;;;;6333281;22;19999;-83
2022/03/23 06:24:47;;;;;;;4.60;4.03;;;;;;;;;;6333718;22;20052;-85
2022/03/23 06:27:14;;;;;;;8.10;3.78;;;;;;;;;;6333752;22;20335;-78
2022/03/23 06:29:40;;;;;;;6.18;4.20;;;;;;;;;;6333829;22;20025;-84
2022/03/23 06:32:06;;;;;;;4.95;3.88;;;;;;;;;;6333758;22;20003;-80
2022/03/23 06:34:32;;;;;;;9.60;4.10;;;;;;;;;;6335114;22;20070;-82
2022/03/23 06:37:01;;;;;;;8.60;3.95;;;;;;;;;;6335078;22;19999;-84
2022/03/23 06:39:27;;;;;;;5.07;4.20;;;;;;;;;;6333716;22;20385;-79
2022/03/23 06:41:53;;;;;;;5.10;4.15;;;;;;;;;;6333295;22;20544;-79
2022/03/23 06:44:19;;;;;;;7.32;4.00;;;;;;;;;;6305963;22;20002;-79
2022/03/23 06:46:45;;;;;;;6.03;4.03;;;;;;;;;;6333514;22;20003;-81
2022/03/23 06:49:12;;;;;;;8.88;4.35;;;;;;;;;;6305923;22;20002;-82
2022/03/23 06:51:38;;;;;;;8.60;4.25;;;;;;;;;;6333441;22;20002;-79
2022/03/23 06:54:04;;;;;;;8.43;4.47;;;;;;;;;;6306389;22;20059;-77
2022/03/23 06:56:31;;;;;;;5.07;4.20;;;;;;;;;;6334412;22;20023;-76
2022/03/23 06:58:57;;;;;;;5.95;4.18;;;;;;;;;;6333099;22;20003;-76
2022/03/23 07:01:23;;;;;;;4.93;4.03;;;;;;;;;;6332600;22;20005;-77
2022/03/23 07:03:49;;;;;;;7.80;4.53;;;;;;;;;;6333358;22;20037;-79
2022/03/23 07:06:16;;;;;;;6.45;4.75;;;;;;;;;;6333292;22;20005;-79
2022/03/23 07:11:27;;;;;;;6.78;4.28;;;;;;;;;;6333106;22;20018;-79
2022/03/23 07:13:53;;;;;;;10.82;4.57;;;;;;;;;;6332816;22;20002;-76
2022/03/23 07:16:19;;;;;;;6.90;4.68;;;;;;;;;;6330325;22;20143;-76
2022/03/23 07:18:45;;;;;;;7.32;4.82;;;;;;;;;;6331536;22;20048;-79
2022/03/23 07:21:11;;;;;;;5.88;4.65;;;;;;;;;;6333248;22;19999;-76
2022/03/23 07:23:38;;;;;;;7.07;4.68;;;;;;;;;;6305375;22;20069;-76
2022/03/23 07:26:04;;;;;;;8.52;5.20;;;;;;;;;;6333788;22;20017;-78
2022/03/23 07:28:30;;;;;;;7.63;4.75;;;;;;;;;;6332889;22;20030;-79
2022/03/23 07:30:57;;;;;;;6.13;4.78;;;;;;;;;;6333644;22;20202;-80
2022/03/23 07:33:23;;;;;;;6.20;4.72;;;;;;;;;;6332927;22;20002;-80
2022/03/23 07:35:49;;;;;;;7.32;4.90;;;;;;;;;;6309705;22;20002;-78
2022/03/23 07:38:15;;;;;;;5.93;4.35;;;;;;;;;;6335314;22;20049;-81
2022/03/23 07:40:41;;;;;;;6.47;4.80;;;;;;;;;;6332984;22;20070;-79
2022/03/23 07:43:08;;;;;;;5.82;5.00;;;;;;;;;;6333799;22;20003;-76
2022/03/23 07:45:34;;;;;;;12.23;4.80;;;;;;;;;;6333754;22;20112;-78
2022/03/23 07:48:00;;;;;;;5.38;4.10;;;;;;;;;;6335102;22;20003;-80
2022/03/23 07:50:26;;;;;;;6.53;5.00;;;;;;;;;;6332578;22;19998;-80
2022/03/23 07:52:52;;;;;;;6.28;4.75;;;;;;;;;;6332755;22;20074;-79
2022/03/23 07:55:18;;;;;;;7.82;4.75;;;;;;;;;;6334718;22;20033;-79
2022/03/23 07:57:45;;;;;;;6.03;4.70;;;;;;;;;;6334373;22;20002;-78
2022/03/23 08:00:11;;;;;;;8.18;4.70;;;;;;;;;;6335516;22;20003;-79
2022/03/23 08:02:37;;;;;;;8.85;4.85;;;;;;;;;;6308607;22;20082;-79
2022/03/23 08:05:04;;;;;;;7.25;4.70;;;;;;;;;;6334674;22;20439;-80
2022/03/23 08:07:30;;;;;;;7.43;4.72;;;;;;;;;;6334244;22;20443;-78
2022/03/23 08:09:56;;;;;;;7.45;4.80;;;;;;;;;;6335965;22;20006;-79
2022/03/23 08:12:23;;;;;;;6.80;4.90;;;;;;;;;;6335477;22;19995;-80
2022/03/23 08:14:49;;;;;;;6.10;4.95;;;;;;;;;;6336384;22;20003;-79
2022/03/23 08:17:15;;;;;;;9.43;4.65;;;;;;;;;;6334730;22;20002;-79
2022/03/23 08:19:41;;;;;;;7.00;5.05;;;;;;;;;;6334663;22;20511;-78
2022/03/23 08:22:07;;;;;;;6.00;4.72;;;;;;;;;;6336749;22;19999;-76
2022/03/23 08:24:34;;;;;;;8.18;4.75;;;;;;;;;;6334264;22;20075;-78
2022/03/23 08:27:00;;;;;;;6.82;4.80;;;;;;;;;;6337848;22;20041;-78
2022/03/23 08:29:26;;;;;;;8.85;5.07;;;;;;;;;;6335961;22;19999;-76
2022/03/23 08:31:52;;;;;;;8.55;4.88;;;;;;;;;;6334300;22;20003;-78
2022/03/23 08:34:18;;;;;;;6.38;4.78;;;;;;;;;;6335868;22;20052;-78
2022/03/23 08:36:44;;;;;;;9.65;5.35;;;;;;;;;;6334128;22;19994;-75
2022/03/23 08:39:10;;;;;;;6.65;4.80;;;;;;;;;;6335480;22;20007;-76
2022/03/23 08:41:36;;;;;;;6.97;5.10;;;;;;;;;;6334970;22;20030;-77
2022/03/23 08:44:03;;;;;;;10.05;4.90;;;;;;;;;;6334969;22;20010;-79
2022/03/23 08:46:29;;;;;;;6.45;4.45;;;;;;;;;;6334885;22;20065;-77
2022/03/23 08:48:55;;;;;;;5.68;4.47;;;;;;;;;;6334218;22;20074;-79
2022/03/23 08:51:21;;;;;;;8.48;4.55;;;;;;;;;;6334252;22;19998;-77
2022/03/23 08:53:47;;;;;;;7.38;4.80;;;;;;;;;;6334479;22;19995;-76
2022/03/23 08:56:13;;;;;;;8.73;4.70;;;;;;;;;;6333983;22;20064;-79
2022/03/23 08:58:47;;;;;;;5.97;4.57;;;;;;;;;;6335306;22;20003;-77
2022/03/23 09:01:13;;;;;;;6.45;4.82;;;;;;;;;;6334061;22;20002;-81
2022/03/23 09:03:39;;;;;;;6.55;4.25;;;;;;;;;;6336779;22;19995;-80
2022/03/23 09:06:05;;;;;;;5.78;4.78;;;;;;;;;;6334861;22;20376;-79
2022/03/23 09:08:32;;;;;;;6.93;4.55;;;;;;;;;;6334590;22;20023;-79
2022/03/23 09:10:59;;;;;;;9.15;4.80;;;;;;;;;;6334375;22;20014;-79
2022/03/23 09:13:25;;;;;;;7.72;4.63;;;;;;;;;;6334903;22;19999;-77
2022/03/23 09:15:51;;;;;;;5.35;4.57;;;;;;;;;;6334290;22;20006;-80
2022/03/23 09:18:17;;;;;;;7.22;4.22;;;;;;;;;;6334502;22;20005;-77
2022/03/23 09:20:43;;;;;;;4.85;4.35;;;;;;;;;;6333705;22;20367;-79
2022/03/23 09:23:09;;;;;;;7.90;4.40;;;;;;;;;;6334606;22;20003;-76
2022/03/23 09:25:36;;;;;;;8.30;4.30;;;;;;;;;;6335381;22;20007;-79
2022/03/23 09:28:03;;;;;;;7.18;4.47;;;;;;;;;;6334108;22;20439;-79
2022/03/23 09:30:29;;;;;;;5.57;4.20;;;;;;;;;;6333832;22;20048;-80
2022/03/23 09:32:57;;;;;;;6.22;4.60;;;;;;;;;;6334032;22;20005;-77
2022/03/23 09:35:23;;;;;;;7.60;4.13;;;;;;;;;;6334618;22;20009;-80
2022/03/23 09:37:50;;;;;;;6.07;4.10;;;;;;;;;;6334490;22;20447;-79
2022/03/23 09:40:16;;;;;;;4.60;4.15;;;;;;;;;;6334502;22;20443;-79
2022/03/23 09:42:43;;;;;;;5.70;4.60;;;;;;;;;;6335263;22;20026;-76
2022/03/23 09:45:11;;;;;;;6.15;4.45;;;;;;;;;;6335226;22;20451;-77
2022/03/23 09:47:38;;;;;;;6.82;4.53;;;;;;;;;;6334771;22;20029;-79
2022/03/23 09:50:04;;;;;;;6.50;4.32;;;;;;;;;;6306422;22;20013;-79
2022/03/23 09:52:30;;;;;;;7.32;3.78;;;;;;;;;;6333572;22;20033;-80
2022/03/23 09:54:56;;;;;;;8.75;4.38;;;;;;;;;;6333469;22;20003;-77
2022/03/23 09:57:22;;;;;;;7.75;4.05;;;;;;;;;;6332007;22;20483;-77
2022/03/23 09:59:48;;;;;;;6.03;3.92;;;;;;;;;;6333167;22;19998;-79
2022/03/23 10:02:34;;;;;;;4.30;3.80;;;;;;;;;;6333015;22;20048;-77
2022/03/23 10:05:26;;;;;;;6.70;4.43;;;;;;;;;;6333673;22;20018;-78
2022/03/23 10:08:10;;;;;;;6.10;4.30;;;;;;;;;;6333262;22;20015;-81
2022/03/23 10:10:54;;;;;;;6.25;4.20;;;;;;;;;;6333103;22;20447;-79
2022/03/23 10:13:43;;;;;;;6.50;3.83;;;;;;;;;;6332357;22;20081;-78
2022/03/23 10:16:28;;;;;;;8.80;3.95;;;;;;;;;;6304496;22;20392;-76
2022/03/23 10:18:57;;;;;;;4.78;3.75;;;;;;;;;;6332155;22;20339;-73
2022/03/23 10:21:26;;;;;;;10.88;4.15;;;;;;;;;;6304116;22;20010;-77
2022/03/23 10:24:15;;;;;;;8.40;4.30;;;;;;;;;;6332328;22;20003;-74
2022/03/23 10:26:42;;;;;;;7.28;4.10;;;;;;;;;;6332588;22;20503;-75
2022/03/23 10:29:22;;;;;;;6.22;4.07;;;;;;;;;;6305841;22;20078;-77
2022/03/23 10:31:58;;;;;;;6.18;4.00;;;;;;;;;;6331631;22;19999;-76
2022/03/23 10:34:24;;;;;;;5.18;3.75;;;;;;;;;;6333237;22;19995;-74
2022/03/23 10:36:51;;;;;;;6.03;4.28;;;;;;;;;;6331912;22;20007;-76
2022/03/23 10:39:18;;;;;;;6.03;3.88;;;;;;;;;;6332285;22;20010;-74
2022/03/23 10:41:55;;;;;;;6.00;4.20;;;;;;;;;;6331406;22;20082;-75
2022/03/23 10:44:21;;;;;;;5.70;4.17;;;;;;;;;;6331910;22;20007;-75
2022/03/23 10:46:47;;;;;;;6.50;4.32;;;;;;;;;;6332664;22;19999;-75
2022/03/23 10:49:16;;;;;;;6.55;4.05;;;;;;;;;;6332191;22;20441;-77
2022/03/23 10:51:43;;;;;;;5.43;4.28;;;;;;;;;;6331863;22;20014;-79
2022/03/23 10:54:20;;;;;;;8.27;4.35;;;;;;;;;;6333788;22;20003;-78
2022/03/23 10:56:46;;;;;;;7.68;4.30;;;;;;;;;;6331657;22;20037;-76
2022/03/23 10:59:22;;;;;;;5.43;4.00;;;;;;;;;;6332174;22;20118;-76
2022/03/23 11:02:08;;;;;;;9.25;4.50;;;;;;;;;;6331574;22;20006;-80
2022/03/23 11:04:46;;;;;;;11.20;5.78;;;;;;;;;;6331233;22;20037;-80
2022/03/23 11:07:41;;;;;;;9.30;5.43;;;;;;;;;;6329398;22;19999;-76
2022/03/23 11:15:49;;;;;;;10.75;5.63;;;;;;;;;;6337066;22;20351;-80
2022/03/23 11:18:19;;;;;;;17.52;5.97;;;;;;;;;;6341680;22;20003;-80
2022/03/23 11:20:51;;;;;;;11.02;5.35;;;;;;;;;;6333370;22;20010;-80
2022/03/23 11:23:30;;;;;;;13.25;5.20;;;;;;;;;;6333011;22;20005;-81
2022/03/23 11:26:00;;;;;;;8.70;4.65;;;;;;;;;;6332791;22;20432;-82
2022/03/23 11:28:28;;;;;;;10.80;5.05;;;;;;;;;;6333090;22;20396;-82
2022/03/23 11:30:54;;;;;;;11.45;4.72;;;;;;;;;;6332607;22;19999;-82
2022/03/23 11:33:22;;;;;;;8.07;4.80;;;;;;;;;;6331884;22;20048;-81
2022/03/23 11:35:49;;;;;;;7.70;4.10;;;;;;;;;;6304102;22;20320;-83
2022/03/23 11:38:22;;;;;;;5.90;4.38;;;;;;;;;;6331519;22;20048;-77
2022/03/23 11:40:49;;;;;;;9.23;4.45;;;;;;;;;;6331869;22;20332;-79
2022/03/23 11:43:16;;;;;;;10.60;4.78;;;;;;;;;;6332063;22;20052;-81
2022/03/23 11:45:44;;;;;;;7.28;4.90;;;;;;;;;;6331768;22;20018;-78
2022/03/23 11:48:15;;;;;;;7.30;4.90;;;;;;;;;;6332909;22;19995;-79
2022/03/23 11:51:00;;;;;;;12.05;5.03;;;;;;;;;;6332760;22;20007;-78
2022/03/23 11:53:44;;;;;;;8.23;5.38;;;;;;;;;;6331768;22;19999;-79
2022/03/23 11:56:11;;;;;;;7.25;5.25;;;;;;;;;;6333299;22;20006;-77
2022/03/23 11:58:38;;;;;;;12.43;5.40;;;;;;;;;;6334188;22;19999;-80
2022/03/23 12:01:07;;;;;;;8.13;5.40;;;;;;;;;;6332145;22;20002;-77
2022/03/23 12:03:42;;;;;;;8.40;5.50;;;;;;;;;;6331734;22;20006;-74
2022/03/23 12:06:13;;;;;;;6.18;5.32;;;;;;;;;;6332702;22;20006;-76
2022/03/23 12:08:49;;;;;;;9.25;5.32;;;;;;;;;;6331110;22;19998;-77
2022/03/23 12:11:34;;;;;;;11.25;5.60;;;;;;;;;;6331483;22;20516;-77
2022/03/23 12:14:01;;;;;;;7.43;4.68;;;;;;;;;;6331880;22;19999;-78
2022/03/23 12:16:46;;;;;;;9.00;5.70;;;;;;;;;;6321949;22;20007;-81
2022/03/23 12:19:17;;;;;;;12.88;5.20;;;;;;;;;;6332496;22;19999;-77
2022/03/23 12:22:05;;;;;;;5.78;5.18;;;;;;;;;;6330723;22;20082;-79
2022/03/23 12:24:47;;;;;;;9.02;4.95;;;;;;;;;;6330118;22;20018;-78
2022/03/23 12:27:27;;;;;;;6.15;4.68;;;;;;;;;;6332223;22;20006;-76
2022/03/23 12:29:53;;;;;;;5.78;4.55;;;;;;;;;;6332137;22;20022;-78
2022/03/23 12:32:20;;;;;;;6.57;4.55;;;;;;;;;;6331578;22;20065;-76
2022/03/23 12:34:51;;;;;;;6.53;4.73;;;;;;;;;;6331376;22;20037;-79
2022/03/23 12:37:19;;;;;;;9.38;4.80;;;;;;;;;;6333855;22;20222;-79
2022/03/23 12:39:53;;;;;;;7.32;5.07;;;;;;;;;;6332908;22;20014;-80
2022/03/23 12:42:42;;;;;;;12.68;4.90;;;;;;;;;;6334156;22;20006;-79
2022/03/23 12:45:10;;;;;;;5.88;4.43;;;;;;;;;;6315169;22;20021;-81
2022/03/23 12:47:36;;;;;;;8.00;4.53;;;;;;;;;;6335118;22;20515;-82
2022/03/23 12:57:49;;;;;;;5.53;4.25;;;;;;;;;;6333978;22;20009;-81
2022/03/23 12:58:39;;;;;;;7.70;4.35;;;;;;;;;;6336366;22;20090;-80
2022/03/23 13:01:12;;;;;;;5.38;4.13;;;;;;;;;;6334593;22;19999;-80
2022/03/23 13:03:41;;;;;;;7.35;4.50;;;;;;;;;;6336277;22;19998;-80
2022/03/23 13:06:09;;;;;;;5.63;4.20;;;;;;;;;;6336228;22;20095;-82
2022/03/23 13:08:46;;;;;;;6.40;4.35;;;;;;;;;;6334923;22;20062;-78
2022/03/23 13:11:12;;;;;;;5.50;4.10;;;;;;;;;;6335327;22;20009;-77
2022/03/23 13:13:39;;;;;;;5.78;4.50;;;;;;;;;;6334430;22;19995;-81
2022/03/23 13:16:13;;;;;;;4.22;3.80;;;;;;;;;;6334779;22;20048;-79
2022/03/23 13:18:39;;;;;;;5.07;3.83;;;;;;;;;;6337030;22;19995;-81
2022/03/23 13:21:10;;;;;;;4.50;3.88;;;;;;;;;;6335273;22;19998;-80
2022/03/23 13:23:39;;;;;;;5.38;4.00;;;;;;;;;;6334241;22;20431;-79
2022/03/23 13:26:09;;;;;;;5.03;4.00;;;;;;;;;;6334645;22;20007;-80
2022/03/23 13:28:36;;;;;;;5.28;3.88;;;;;;;;;;6334263;22;20020;-80
2022/03/23 13:31:04;;;;;;;4.47;4.03;;;;;;;;;;6334256;22;20086;-76
2022/03/23 13:33:40;;;;;;;6.75;3.92;;;;;;;;;;6333825;22;19999;-78
2022/03/23 13:36:07;;;;;;;5.07;3.78;;;;;;;;;;6334477;22;20006;-80
2022/03/23 13:38:34;;;;;;;4.78;3.78;;;;;;;;;;6336884;22;20044;-78
2022/03/23 13:43:45;;;;;;;7.47;3.70;;;;;;;;;;6336381;22;20145;-78
2022/03/23 13:46:11;;;;;;;4.03;3.63;;;;;;;;;;6335597;22;20015;-82
2022/03/23 13:48:39;;;;;;;6.22;3.90;;;;;;;;;;6335774;22;20006;-79
2022/03/23 13:51:05;;;;;;;4.28;3.58;;;;;;;;;;6337145;22;20002;-84
2022/03/23 13:53:31;;;;;;;4.35;3.65;;;;;;;;;;6333745;22;20415;-79
2022/03/23 13:55:57;;;;;;;5.95;3.63;;;;;;;;;;6333364;22;20010;-81
2022/03/23 13:58:26;;;;;;;4.05;3.65;;;;;;;;;;6334166;22;20003;-78
2022/03/23 14:00:55;;;;;;;5.43;3.83;;;;;;;;;;6334257;22;19999;-81
2022/03/23 14:03:31;;;;;;;4.97;3.88;;;;;;;;;;6334008;22;20006;-82
2022/03/23 14:06:15;;;;;;;5.32;3.63;;;;;;;;;;6334159;22;20015;-80
2022/03/23 14:08:54;;;;;;;7.28;3.55;;;;;;;;;;6335240;22;20426;-77
2022/03/23 14:11:47;;;;;;;5.07;3.55;;;;;;;;;;6334787;22;20007;-77
2022/03/23 14:14:08;;;;;;;5.35;3.72;;;;;;;;;;6334363;22;20010;-82
2022/03/23 14:16:34;;;;;;;3.53;3.20;;;;;;;;;;6334477;22;20014;-78
2022/03/23 14:19:00;;;;;;;6.13;3.28;;;;;;;;;;6333698;22;19999;-79
2022/03/23 14:21:26;;;;;;;5.35;3.85;;;;;;;;;;6333902;22;20041;-80
2022/03/23 14:23:55;;;;;;;5.60;3.47;;;;;;;;;;6333884;22;20335;-80
2022/03/23 14:26:36;;;;;;;3.90;3.50;;;;;;;;;;6334969;22;20014;-81
2022/03/23 14:29:20;;;;;;;3.78;3.33;;;;;;;;;;6333419;22;19999;-82
2022/03/23 14:31:46;;;;;;;4.18;3.28;;;;;;;;;;6334454;22;20003;-79
2022/03/23 14:34:12;;;;;;;4.20;3.72;;;;;;;;;;6306389;22;20002;-80
2022/03/23 14:36:39;;;;;;;4.10;3.30;;;;;;;;;;6333721;22;20483;-82
2022/03/23 14:39:16;;;;;;;6.53;3.50;;;;;;;;;;6333028;22;19999;-82
2022/03/23 14:41:54;;;;;;;3.78;3.25;;;;;;;;;;6333360;22;20339;-82
2022/03/23 14:44:34;;;;;;;3.72;3.28;;;;;;;;;;6332826;22;20006;-82
2022/03/23 14:47:01;;;;;;;3.90;3.33;;;;;;;;;;6333105;22;20450;-79
2022/03/23 14:49:36;;;;;;;8.35;3.33;;;;;;;;;;6333074;22;19999;-81
2022/03/23 14:52:03;;;;;;;4.00;3.20;;;;;;;;;;6333037;22;20010;-79
2022/03/23 14:54:29;;;;;;;5.97;3.40;;;;;;;;;;6333178;22;20002;-84
2022/03/23 14:56:55;;;;;;;4.38;3.42;;;;;;;;;;6333372;22;20033;-80
2022/03/23 14:59:21;;;;;;;4.45;3.55;;;;;;;;;;6304564;22;20060;-79
2022/03/23 15:01:56;;;;;;;5.97;3.72;;;;;;;;;;6334051;22;20018;-81
2022/03/23 15:04:22;;;;;;;4.65;3.28;;;;;;;;;;6332806;22;19999;-78
2022/03/23 15:15:03;;;;;;;5.22;3.20;;;;;;;;;;6333770;22;20065;-80
2022/03/23 15:17:29;;;;;;;5.43;3.33;;;;;;;;;;6334336;22;20005;-80
2022/03/23 15:19:55;;;;;;;3.78;3.40;;;;;;;;;;6334159;22;20003;-81